createdAt,value
2023-09-17T00:00:23.971Z,317.43
2023-09-17T00:01:24.000Z,317.43
2023-09-17T00:02:24.004Z,316.52
2023-09-17T00:03:23.963Z,315.60
2023-09-17T00:04:24.041Z,317.13
2023-09-17T00:05:23.946Z,314.69
2023-09-17T00:06:23.896Z,317.13
2023-09-17T00:07:23.915Z,315.00
2023-09-17T00:08:23.896Z,318.67
2023-09-17T00:09:23.873Z,316.21
2023-09-17T00:10:23.882Z,315.60
2023-09-17T00:11:23.895Z,317.13
2023-09-17T00:12:23.841Z,315.60
2023-09-17T00:13:23.872Z,316.82
2023-09-17T00:14:23.811Z,316.21
2023-09-17T00:15:23.791Z,316.21
2023-09-17T00:16:23.925Z,317.43
2023-09-17T00:17:23.873Z,316.52
2023-09-17T00:18:23.769Z,316.82
2023-09-17T00:19:23.804Z,315.90
2023-09-17T00:20:23.741Z,316.82
2023-09-17T00:21:23.791Z,317.13
2023-09-17T00:22:23.761Z,316.52
2023-09-17T00:23:23.786Z,316.21
2023-09-17T00:24:23.715Z,317.74
2023-09-17T00:25:23.814Z,315.90
2023-09-17T00:26:23.676Z,317.13
2023-09-17T00:27:23.698Z,314.69
2023-09-17T00:28:23.705Z,316.52
2023-09-17T00:29:23.781Z,315.60
2023-09-17T00:30:23.654Z,316.82
2023-09-17T00:31:23.654Z,314.09
2023-09-17T00:32:23.633Z,316.52
2023-09-17T00:33:23.612Z,317.74
2023-09-17T00:34:23.636Z,315.90
2023-09-17T00:35:23.594Z,315.00
2023-09-17T00:36:23.569Z,316.82
2023-09-17T00:37:23.622Z,314.69
2023-09-17T00:38:23.550Z,316.82
2023-09-17T00:39:23.537Z,317.13
2023-09-17T00:40:23.547Z,318.05
2023-09-17T00:41:23.526Z,317.43
2023-09-17T00:42:23.533Z,319.60
2023-09-17T00:43:23.563Z,318.05
2023-09-17T00:44:23.490Z,317.74
2023-09-17T00:45:23.511Z,318.36
2023-09-17T00:46:23.587Z,317.43
2023-09-17T00:47:23.466Z,318.36
2023-09-17T00:48:23.438Z,318.36
2023-09-17T00:49:23.573Z,317.43
2023-09-17T00:50:23.423Z,318.05
2023-09-17T00:51:23.438Z,319.91
2023-09-17T00:52:23.471Z,319.29
2023-09-17T00:53:23.413Z,316.82
2023-09-17T00:54:23.380Z,317.43
2023-09-17T00:55:23.424Z,319.29
2023-09-17T00:56:23.355Z,317.74
2023-09-17T00:57:23.344Z,319.29
2023-09-17T00:58:23.432Z,318.36
2023-09-17T00:59:23.326Z,320.22
2023-09-17T01:00:23.306Z,319.60
2023-09-17T01:01:23.484Z,318.05
2023-09-17T01:02:23.364Z,320.85
2023-09-17T01:03:23.375Z,319.91
2023-09-17T01:04:23.302Z,318.98
2023-09-17T01:05:23.285Z,318.98
2023-09-17T01:06:23.251Z,320.22
2023-09-17T01:07:23.301Z,318.67
2023-09-17T01:08:23.415Z,318.36
2023-09-17T01:09:23.229Z,317.43
2023-09-17T01:10:23.273Z,318.05
2023-09-17T01:11:23.198Z,319.29
2023-09-17T01:12:23.302Z,320.22
2023-09-17T01:13:23.246Z,318.36
2023-09-17T01:14:23.219Z,319.60
2023-09-17T01:15:23.224Z,319.60
2023-09-17T01:16:23.290Z,321.16
2023-09-17T01:17:23.190Z,320.22
2023-09-17T01:18:23.371Z,320.22
2023-09-17T01:19:23.231Z,321.79
2023-09-17T01:20:23.111Z,318.98
2023-09-17T01:21:23.105Z,320.22
2023-09-17T01:22:23.115Z,320.22
2023-09-17T01:23:23.090Z,319.29
2023-09-17T01:24:23.094Z,321.48
2023-09-17T01:25:23.133Z,320.22
2023-09-17T01:26:23.065Z,320.22
2023-09-17T01:27:23.045Z,319.91
2023-09-17T01:28:23.071Z,320.54
2023-09-17T01:29:23.029Z,320.22
2023-09-17T01:30:23.004Z,320.54
2023-09-17T01:31:23.016Z,319.60
2023-09-17T01:32:23.114Z,318.36
2023-09-17T01:33:23.056Z,320.85
2023-09-17T01:34:23.003Z,321.79
2023-09-17T01:35:22.954Z,319.91
2023-09-17T01:36:22.988Z,319.29
2023-09-17T01:37:22.961Z,319.91
2023-09-17T01:38:22.920Z,320.85
2023-09-17T01:39:22.906Z,319.91
2023-09-17T01:40:23.012Z,319.60
2023-09-17T01:41:22.903Z,320.54
2023-09-17T01:42:23.042Z,318.36
2023-09-17T01:43:22.869Z,318.05
2023-09-17T01:44:22.858Z,318.05
2023-09-17T01:45:22.867Z,318.67
2023-09-17T01:46:22.999Z,318.98
2023-09-17T01:47:22.850Z,318.98
2023-09-17T01:48:22.806Z,318.05
2023-09-17T01:49:22.828Z,318.05
2023-09-17T01:50:22.779Z,317.74
2023-09-17T01:51:22.848Z,317.74
2023-09-17T01:52:22.798Z,319.60
2023-09-17T01:53:22.766Z,318.98
2023-09-17T01:54:22.742Z,318.67
2023-09-17T01:55:22.797Z,316.52
2023-09-17T01:56:22.755Z,317.74
2023-09-17T01:57:22.717Z,318.98
2023-09-17T01:58:22.783Z,317.43
2023-09-17T01:59:22.723Z,317.13
2023-09-17T02:00:22.711Z,319.29
2023-09-17T02:01:22.858Z,317.74
2023-09-17T02:02:22.707Z,319.91
2023-09-17T02:03:22.822Z,316.82
2023-09-17T02:04:22.747Z,316.21
2023-09-17T02:05:22.725Z,316.21
2023-09-17T02:06:22.626Z,313.79
2023-09-17T02:07:22.620Z,317.43
2023-09-17T02:08:22.608Z,316.52
2023-09-17T02:09:22.725Z,316.21
2023-09-17T02:10:22.647Z,315.60
2023-09-17T02:11:22.562Z,315.00
2023-09-17T02:12:22.557Z,314.69
2023-09-17T02:13:22.615Z,315.00
2023-09-17T02:14:22.521Z,315.60
2023-09-17T02:15:22.617Z,314.69
2023-09-17T02:16:22.546Z,315.60
2023-09-17T02:17:22.595Z,313.79
2023-09-17T02:18:22.487Z,313.79
2023-09-17T02:19:22.559Z,316.82
2023-09-17T02:20:22.490Z,313.79
2023-09-17T02:21:22.472Z,315.60
2023-09-17T02:22:22.688Z,314.39
2023-09-17T02:23:22.428Z,313.49
2023-09-17T02:24:22.455Z,314.39
2023-09-17T02:25:22.420Z,316.82
2023-09-17T02:26:22.389Z,313.19
2023-09-17T02:27:22.387Z,313.79
2023-09-17T02:28:22.412Z,315.60
2023-09-17T02:29:22.482Z,314.69
2023-09-17T02:30:22.343Z,312.89
2023-09-17T02:31:22.412Z,315.00
2023-09-17T02:32:22.337Z,313.49
2023-09-17T02:33:22.316Z,315.00
2023-09-17T02:34:22.365Z,315.60
2023-09-17T02:35:22.348Z,314.39
2023-09-17T02:36:22.296Z,315.90
2023-09-17T02:37:22.291Z,315.30
2023-09-17T02:38:22.263Z,313.19
2023-09-17T02:39:22.276Z,314.39
2023-09-17T02:40:24.004Z,313.79
2023-09-17T02:41:22.248Z,314.39
2023-09-17T02:42:22.218Z,313.79
2023-09-17T02:43:22.216Z,316.21
2023-09-17T02:44:22.198Z,313.79
2023-09-17T02:45:22.194Z,312.00
2023-09-17T02:46:22.227Z,310.82
2023-09-17T02:47:22.282Z,311.41
2023-09-17T02:48:22.142Z,312.00
2023-09-17T02:49:22.202Z,310.82
2023-09-17T02:50:22.166Z,311.41
2023-09-17T02:51:22.133Z,311.11
2023-09-17T02:52:22.118Z,309.64
2023-09-17T02:53:22.119Z,310.52
2023-09-17T02:54:22.126Z,312.30
2023-09-17T02:55:22.097Z,311.41
2023-09-17T02:56:22.129Z,309.64
2023-09-17T02:57:22.052Z,309.35
2023-09-17T02:58:22.145Z,308.77
2023-09-17T02:59:22.028Z,308.77
2023-09-17T03:00:22.048Z,308.77
2023-09-17T03:01:22.165Z,309.64
2023-09-17T03:02:22.124Z,309.06
2023-09-17T03:03:22.076Z,308.77
2023-09-17T03:04:22.014Z,307.33
2023-09-17T03:05:21.971Z,310.23
2023-09-17T03:06:21.979Z,307.90
2023-09-17T03:07:21.978Z,308.19
2023-09-17T03:08:22.010Z,309.06
2023-09-17T03:09:21.955Z,308.19
2023-09-17T03:10:21.935Z,307.90
2023-09-17T03:11:21.921Z,307.33
2023-09-17T03:12:21.900Z,308.77
2023-09-17T03:13:21.924Z,307.33
2023-09-17T03:14:21.964Z,306.18
2023-09-17T03:15:21.900Z,307.33
2023-09-17T03:16:21.906Z,307.61
2023-09-17T03:17:21.986Z,304.76
2023-09-17T03:18:21.841Z,304.76
2023-09-17T03:19:21.827Z,306.18
2023-09-17T03:20:21.916Z,305.89
2023-09-17T03:21:21.821Z,306.75
2023-09-17T03:22:21.834Z,305.32
2023-09-17T03:23:21.824Z,304.19
2023-09-17T03:24:21.776Z,305.32
2023-09-17T03:25:21.835Z,306.18
2023-09-17T03:26:21.795Z,303.91
2023-09-17T03:27:21.758Z,304.76
2023-09-17T03:28:21.842Z,305.61
2023-09-17T03:29:21.748Z,305.04
2023-09-17T03:30:21.735Z,305.89
2023-09-17T03:31:21.764Z,305.61
2023-09-17T03:32:21.752Z,304.19
2023-09-17T03:33:21.721Z,304.19
2023-09-17T03:34:21.666Z,305.04
2023-09-17T03:35:21.738Z,304.47
2023-09-17T03:36:21.652Z,305.32
2023-09-17T03:37:21.662Z,305.89
2023-09-17T03:38:21.700Z,303.91
2023-09-17T03:39:21.602Z,303.35
2023-09-17T03:40:21.633Z,303.91
2023-09-17T03:41:21.670Z,305.32
2023-09-17T03:42:21.599Z,305.61
2023-09-17T03:43:21.581Z,305.32
2023-09-17T03:44:21.560Z,304.76
2023-09-17T03:45:21.560Z,307.04
2023-09-17T03:46:21.560Z,304.76
2023-09-17T03:47:21.593Z,305.61
2023-09-17T03:48:21.504Z,304.76
2023-09-17T03:49:21.529Z,303.07
2023-09-17T03:50:29.008Z,305.04
2023-09-17T03:51:21.492Z,303.91
2023-09-17T03:52:21.478Z,303.91
2023-09-17T03:53:21.460Z,303.91
2023-09-17T03:54:21.432Z,305.61
2023-09-17T03:55:21.470Z,304.47
2023-09-17T03:56:21.411Z,303.07
2023-09-17T03:57:21.417Z,304.19
2023-09-17T03:58:21.420Z,302.79
2023-09-17T03:59:21.392Z,303.35
2023-09-17T04:00:21.404Z,302.51
2023-09-17T04:01:21.537Z,304.76
2023-09-17T04:02:21.448Z,303.35
2023-09-17T04:03:21.375Z,305.04
2023-09-17T04:04:21.482Z,303.35
2023-09-17T04:05:21.333Z,302.79
2023-09-17T04:06:21.325Z,305.32
2023-09-17T04:07:21.406Z,305.61
2023-09-17T04:08:21.283Z,304.19
2023-09-17T04:09:21.272Z,305.32
2023-09-17T04:10:21.356Z,305.32
2023-09-17T04:11:21.328Z,306.46
2023-09-17T04:12:21.243Z,303.91
2023-09-17T04:13:21.284Z,306.75
2023-09-17T04:14:21.217Z,306.46
2023-09-17T04:15:21.301Z,303.91
2023-09-17T04:16:21.272Z,305.89
2023-09-17T04:17:21.230Z,304.76
2023-09-17T04:18:21.186Z,303.91
2023-09-17T04:19:21.229Z,303.91
2023-09-17T04:20:21.172Z,305.89
2023-09-17T04:21:21.179Z,303.91
2023-09-17T04:22:21.176Z,304.47
2023-09-17T04:23:21.260Z,306.75
2023-09-17T04:24:21.139Z,304.47
2023-09-17T04:25:21.596Z,305.32
2023-09-17T04:26:21.193Z,303.91
2023-09-17T04:27:21.090Z,305.04
2023-09-17T04:28:21.118Z,304.19
2023-09-17T04:29:21.122Z,303.63
2023-09-17T04:30:21.108Z,303.07
2023-09-17T04:31:21.065Z,304.19
2023-09-17T04:32:21.141Z,305.61
2023-09-17T04:33:21.097Z,302.79
2023-09-17T04:34:21.074Z,304.47
2023-09-17T04:35:21.000Z,303.91
2023-09-17T04:36:21.007Z,303.91
2023-09-17T04:37:21.014Z,303.35
2023-09-17T04:38:20.984Z,303.63
2023-09-17T04:39:20.963Z,303.63
2023-09-17T04:40:20.979Z,303.91
2023-09-17T04:41:20.947Z,303.07
2023-09-17T04:42:21.010Z,302.51
2023-09-17T04:43:21.197Z,301.95
2023-09-17T04:44:20.916Z,301.67
2023-09-17T04:45:20.918Z,304.47
2023-09-17T04:46:20.992Z,303.63
2023-09-17T04:47:20.885Z,301.95
2023-09-17T04:48:20.873Z,301.40
2023-09-17T04:49:20.974Z,302.23
2023-09-17T04:50:20.863Z,302.51
2023-09-17T04:51:20.831Z,301.67
2023-09-17T04:52:20.845Z,301.67
2023-09-17T04:53:20.874Z,303.35
2023-09-17T04:54:20.788Z,299.74
2023-09-17T04:55:20.815Z,304.19
2023-09-17T04:56:20.799Z,300.84
2023-09-17T04:57:20.761Z,300.29
2023-09-17T04:58:20.898Z,301.67
2023-09-17T04:59:20.741Z,301.40
2023-09-17T05:00:20.766Z,301.95
2023-09-17T05:01:20.773Z,303.63
2023-09-17T05:02:20.781Z,300.57
2023-09-17T05:03:20.820Z,302.51
2023-09-17T05:04:20.731Z,299.47
2023-09-17T05:05:24.084Z,300.84
2023-09-17T05:07:32.632Z,337.69
2023-09-17T05:08:32.643Z,330.21
2023-09-17T05:09:32.599Z,324.02
2023-09-17T05:10:32.655Z,321.79
2023-09-17T05:11:32.588Z,316.82
2023-09-17T05:12:32.560Z,315.00
2023-09-17T05:13:32.633Z,311.41
2023-09-17T05:14:32.551Z,311.11
2023-09-17T05:15:32.558Z,309.94
2023-09-17T05:16:32.640Z,307.33
2023-09-17T05:17:32.512Z,306.46
2023-09-17T05:18:32.504Z,306.46
2023-09-17T05:19:32.513Z,307.33
2023-09-17T05:20:32.498Z,305.61
2023-09-17T05:21:32.504Z,305.61
2023-09-17T05:22:32.483Z,305.32
2023-09-17T05:23:32.469Z,302.51
2023-09-17T05:24:32.449Z,304.76
2023-09-17T05:25:32.510Z,301.40
2023-09-17T05:26:32.426Z,303.07
2023-09-17T05:27:32.413Z,301.40
2023-09-17T05:28:32.450Z,301.67
2023-09-17T05:29:32.453Z,300.57
2023-09-17T05:30:32.389Z,301.67
2023-09-17T05:31:32.445Z,299.47
2023-09-17T05:32:32.414Z,302.51
2023-09-17T05:33:32.382Z,300.57
2023-09-17T05:34:32.377Z,300.02
2023-09-17T05:35:32.328Z,298.11
2023-09-17T05:36:32.306Z,298.65
2023-09-17T05:37:32.632Z,297.30
2023-09-17T05:38:32.320Z,299.47
2023-09-17T05:39:32.272Z,299.47
2023-09-17T05:40:32.277Z,296.23
2023-09-17T05:41:32.252Z,298.65
2023-09-17T05:42:32.269Z,298.38
2023-09-17T05:43:32.314Z,296.76
2023-09-17T05:44:32.225Z,297.84
2023-09-17T05:45:32.261Z,298.65
2023-09-17T05:46:32.221Z,295.96
2023-09-17T05:47:32.203Z,297.30
2023-09-17T05:48:32.191Z,295.16
2023-09-17T05:49:32.201Z,297.03
2023-09-17T05:50:32.214Z,297.03
2023-09-17T05:51:32.154Z,296.76
2023-09-17T05:52:32.175Z,296.23
2023-09-17T05:53:32.278Z,295.96
2023-09-17T05:54:32.145Z,295.96
2023-09-17T05:55:32.152Z,294.89
2023-09-17T05:56:32.080Z,294.89
2023-09-17T05:57:32.072Z,293.84
2023-09-17T05:58:32.114Z,294.10
2023-09-17T05:59:32.690Z,295.16
2023-09-17T06:00:32.058Z,294.89
2023-09-17T06:01:32.121Z,294.63
2023-09-17T06:02:32.067Z,294.63
2023-09-17T06:03:32.066Z,294.10
2023-09-17T06:04:32.024Z,294.89
2023-09-17T06:05:31.995Z,294.10
2023-09-17T06:06:32.022Z,295.16
2023-09-17T06:07:31.988Z,293.84
2023-09-17T06:08:31.980Z,293.58
2023-09-17T06:09:31.992Z,293.05
2023-09-17T06:10:31.982Z,294.37
2023-09-17T06:11:31.928Z,293.05
2023-09-17T06:12:31.932Z,293.05
2023-09-17T06:13:31.969Z,293.05
2023-09-17T06:14:31.935Z,292.27
2023-09-17T06:15:31.915Z,293.31
2023-09-17T06:16:42.363Z,293.84
2023-09-17T06:17:32.933Z,293.31
2023-09-17T06:18:31.849Z,291.75
2023-09-17T06:19:31.919Z,292.01
2023-09-17T06:20:31.858Z,292.53
2023-09-17T06:21:31.831Z,293.31
2023-09-17T06:22:31.819Z,291.75
2023-09-17T06:23:31.811Z,293.05
2023-09-17T06:24:31.811Z,292.53
2023-09-17T06:25:31.901Z,291.49
2023-09-17T06:26:32.082Z,293.58
2023-09-17T06:27:31.779Z,291.49
2023-09-17T06:28:31.817Z,292.53
2023-09-17T06:29:31.767Z,290.97
2023-09-17T06:30:31.779Z,292.53
2023-09-17T06:31:31.867Z,292.53
2023-09-17T06:32:31.757Z,292.01
2023-09-17T06:33:31.690Z,291.75
2023-09-17T06:34:31.929Z,291.75
2023-09-17T06:35:31.677Z,293.05
2023-09-17T06:36:31.675Z,291.75
2023-09-17T06:37:31.689Z,290.97
2023-09-17T06:38:31.720Z,292.27
2023-09-17T06:39:31.649Z,292.79
2023-09-17T06:40:31.655Z,290.97
2023-09-17T06:41:33.109Z,292.27
2023-09-17T06:42:31.650Z,292.53
2023-09-17T06:43:31.602Z,293.31
2023-09-17T06:44:31.579Z,294.10
2023-09-17T06:45:31.572Z,292.01
2023-09-17T06:46:31.683Z,293.05
2023-09-17T06:47:31.767Z,292.79
2023-09-17T06:48:31.521Z,291.75
2023-09-17T06:49:31.540Z,292.79
2023-09-17T06:50:31.535Z,292.53
2023-09-17T06:51:31.533Z,292.53
2023-09-17T06:52:31.504Z,292.01
2023-09-17T06:53:31.466Z,292.01
2023-09-17T06:54:31.467Z,293.31
2023-09-17T06:55:31.462Z,294.37
2023-09-17T06:56:31.506Z,293.31
2023-09-17T06:57:31.425Z,292.53
2023-09-17T06:58:31.453Z,292.27
2023-09-17T06:59:31.401Z,293.05
2023-09-17T07:00:31.415Z,290.46
2023-09-17T07:01:31.453Z,292.27
2023-09-17T07:02:31.430Z,292.01
2023-09-17T07:03:31.371Z,290.20
2023-09-17T07:04:31.417Z,290.97
2023-09-17T07:05:31.396Z,292.27
2023-09-17T07:06:31.332Z,292.53
2023-09-17T07:07:31.431Z,290.20
2023-09-17T07:08:31.308Z,290.20
2023-09-17T07:09:31.331Z,289.94
2023-09-17T07:10:31.318Z,290.46
2023-09-17T07:11:31.331Z,289.43
2023-09-17T07:12:31.276Z,289.69
2023-09-17T07:13:31.320Z,288.67
2023-09-17T07:14:31.234Z,289.94
2023-09-17T07:15:31.247Z,287.91
2023-09-17T07:16:31.319Z,289.69
2023-09-17T07:17:31.349Z,287.15
2023-09-17T07:18:31.227Z,287.66
2023-09-17T07:19:31.205Z,285.65
2023-09-17T07:20:31.191Z,286.40
2023-09-17T07:21:31.203Z,285.65
2023-09-17T07:22:31.189Z,285.16
2023-09-17T07:23:31.167Z,288.67
2023-09-17T07:24:31.174Z,285.40
2023-09-17T07:25:31.220Z,284.42
2023-09-17T07:26:31.175Z,286.40
2023-09-17T07:27:31.128Z,284.17
2023-09-17T07:28:31.125Z,285.65
2023-09-17T07:29:31.083Z,286.15
2023-09-17T07:30:31.093Z,284.66
2023-09-17T07:31:31.137Z,283.68
2023-09-17T07:32:31.096Z,286.40
2023-09-17T07:33:31.053Z,283.43
2023-09-17T07:34:31.073Z,283.19
2023-09-17T07:35:31.093Z,284.42
2023-09-17T07:36:31.019Z,283.19
2023-09-17T07:37:40.775Z,284.66
2023-09-17T07:38:33.593Z,284.17
2023-09-17T07:39:31.006Z,282.70
2023-09-17T07:40:30.988Z,285.16
2023-09-17T07:41:30.954Z,284.91
2023-09-17T07:42:30.970Z,284.91
2023-09-17T07:43:30.962Z,281.49
2023-09-17T07:44:31.338Z,282.94
2023-09-17T07:45:30.976Z,282.46
2023-09-17T07:46:31.095Z,281.49
2023-09-17T07:47:30.971Z,282.46
2023-09-17T07:48:30.937Z,283.92
2023-09-17T07:49:30.988Z,281.73
2023-09-17T07:50:30.908Z,281.49
2023-09-17T07:51:30.868Z,283.43
2023-09-17T07:52:30.885Z,283.68
2023-09-17T07:53:30.872Z,281.01
2023-09-17T07:54:30.861Z,281.73
2023-09-17T07:55:30.858Z,283.68
2023-09-17T07:56:30.820Z,282.21
2023-09-17T07:57:30.810Z,280.05
2023-09-17T07:58:30.846Z,280.29
2023-09-17T07:59:30.772Z,281.73
2023-09-17T08:00:30.818Z,279.81
2023-09-17T08:01:30.860Z,281.49
2023-09-17T08:02:30.821Z,282.21
2023-09-17T08:03:30.774Z,280.05
2023-09-17T08:04:30.806Z,279.57
2023-09-17T08:05:30.728Z,279.81
2023-09-17T08:06:30.718Z,280.76
2023-09-17T08:07:30.696Z,279.81
2023-09-17T08:08:30.687Z,279.33
2023-09-17T08:09:30.700Z,275.81
2023-09-17T08:10:30.676Z,276.74
2023-09-17T08:11:30.740Z,275.35
2023-09-17T08:12:30.621Z,273.74
2023-09-17T08:13:30.762Z,273.51
2023-09-17T08:14:30.603Z,274.42
2023-09-17T08:15:30.628Z,273.97
2023-09-17T08:16:30.673Z,273.97
2023-09-17T08:17:30.667Z,272.15
2023-09-17T08:18:30.585Z,271.92
2023-09-17T08:19:30.627Z,272.60
2023-09-17T08:20:30.567Z,272.15
2023-09-17T08:21:33.070Z,272.83
2023-09-17T08:22:30.618Z,272.37
2023-09-17T08:23:30.534Z,270.80
2023-09-17T08:24:30.740Z,270.58
2023-09-17T08:25:30.548Z,271.70
2023-09-17T08:26:30.499Z,271.70
2023-09-17T08:27:30.454Z,271.47
2023-09-17T08:28:30.518Z,272.37
2023-09-17T08:29:30.517Z,271.25
2023-09-17T08:30:30.469Z,274.65
2023-09-17T08:31:30.443Z,275.11
2023-09-17T08:32:30.431Z,278.38
2023-09-17T08:33:30.426Z,276.97
2023-09-17T08:34:30.460Z,278.86
2023-09-17T08:35:30.431Z,278.86
2023-09-17T08:36:30.366Z,278.86
2023-09-17T08:37:30.417Z,279.33
2023-09-17T08:38:30.351Z,279.57
2023-09-17T08:39:30.368Z,280.05
2023-09-17T08:40:33.189Z,278.62
2023-09-17T08:41:30.360Z,277.67
2023-09-17T08:42:30.306Z,277.21
2023-09-17T08:43:30.326Z,278.38
2023-09-17T08:44:30.289Z,276.74
2023-09-17T08:45:30.312Z,276.97
2023-09-17T08:46:30.379Z,276.74
2023-09-17T08:47:30.278Z,275.35
2023-09-17T08:48:30.261Z,274.42
2023-09-17T08:49:30.270Z,274.88
2023-09-17T08:50:30.283Z,276.27
2023-09-17T08:51:30.233Z,274.88
2023-09-17T08:52:30.224Z,276.51
2023-09-17T08:53:30.201Z,278.62
2023-09-17T08:54:30.192Z,276.27
2023-09-17T08:55:30.364Z,275.58
2023-09-17T08:56:30.177Z,274.42
2023-09-17T08:57:30.163Z,275.11
2023-09-17T08:58:30.172Z,273.97
2023-09-17T08:59:30.139Z,276.27
2023-09-17T09:00:30.144Z,276.27
2023-09-17T09:01:30.186Z,275.58
2023-09-17T09:02:30.218Z,275.58
2023-09-17T09:03:30.150Z,276.04
2023-09-17T09:04:30.117Z,274.88
2023-09-17T09:05:30.096Z,275.81
2023-09-17T09:06:30.089Z,275.35
2023-09-17T09:07:30.096Z,274.42
2023-09-17T09:08:30.039Z,276.74
2023-09-17T09:09:30.013Z,277.67
2023-09-17T09:10:30.059Z,276.51
2023-09-17T09:11:30.030Z,275.81
2023-09-17T09:12:30.035Z,273.97
2023-09-17T09:13:30.017Z,275.11
2023-09-17T09:14:29.996Z,274.42
2023-09-17T09:15:29.967Z,275.58
2023-09-17T09:16:30.117Z,275.58
2023-09-17T09:17:29.997Z,272.15
2023-09-17T09:18:29.919Z,273.74
2023-09-17T09:19:29.956Z,273.97
2023-09-17T09:20:29.944Z,273.28
2023-09-17T09:21:29.909Z,272.83
2023-09-17T09:22:29.906Z,272.37
2023-09-17T09:23:29.870Z,269.47
2023-09-17T09:24:29.857Z,269.47
2023-09-17T09:25:29.967Z,269.02
2023-09-17T09:26:29.834Z,267.27
2023-09-17T09:27:29.845Z,268.36
2023-09-17T09:28:29.837Z,268.14
2023-09-17T09:29:30.228Z,267.93
2023-09-17T09:30:29.807Z,265.97
2023-09-17T09:31:29.796Z,267.49
2023-09-17T09:32:29.787Z,265.54
2023-09-17T09:33:29.824Z,265.97
2023-09-17T09:34:29.769Z,266.84
2023-09-17T09:35:29.753Z,264.68
2023-09-17T09:36:29.751Z,265.33
2023-09-17T09:37:29.782Z,265.11
2023-09-17T09:38:29.735Z,263.20
2023-09-17T09:39:29.781Z,264.68
2023-09-17T09:40:29.740Z,261.94
2023-09-17T09:41:29.679Z,263.62
2023-09-17T09:42:29.684Z,263.41
2023-09-17T09:43:29.837Z,263.41
2023-09-17T09:44:29.646Z,264.05
2023-09-17T09:45:29.775Z,263.20
2023-09-17T09:46:29.904Z,261.94
2023-09-17T09:47:29.642Z,262.36
2023-09-17T09:48:29.623Z,262.57
2023-09-17T09:49:29.627Z,262.78
2023-09-17T09:50:38.290Z,260.89
2023-09-17T09:51:29.559Z,260.48
2023-09-17T09:52:29.633Z,262.15
2023-09-17T09:53:29.607Z,261.94
2023-09-17T09:54:29.529Z,261.73
2023-09-17T09:55:29.621Z,260.89
2023-09-17T09:56:29.716Z,260.48
2023-09-17T09:57:29.523Z,260.27
2023-09-17T09:58:29.524Z,262.36
2023-09-17T09:59:29.539Z,260.89
2023-09-17T10:00:29.490Z,263.20
2023-09-17T10:01:29.748Z,261.31
2023-09-17T10:02:29.520Z,263.62
2023-09-17T10:03:29.449Z,262.78
2023-09-17T10:04:29.530Z,265.76
2023-09-17T10:05:29.477Z,267.71
2023-09-17T10:06:29.424Z,265.76
2023-09-17T10:07:30.727Z,264.68
2023-09-17T10:08:29.419Z,264.47
2023-09-17T10:09:29.386Z,261.10
2023-09-17T10:10:29.475Z,260.27
2023-09-17T10:11:29.390Z,260.07
2023-09-17T10:12:29.356Z,259.66
2023-09-17T10:13:29.457Z,258.43
2023-09-17T10:14:29.388Z,258.23
2023-09-17T10:15:29.423Z,258.23
2023-09-17T10:16:29.366Z,254.82
2023-09-17T10:17:29.306Z,255.81
2023-09-17T10:18:29.289Z,255.21
2023-09-17T10:19:29.321Z,256.21
2023-09-17T10:20:29.316Z,258.43
2023-09-17T10:21:29.271Z,260.69
2023-09-17T10:22:29.291Z,262.15
2023-09-17T10:23:29.222Z,261.10
2023-09-17T10:24:29.265Z,260.89
2023-09-17T10:25:29.275Z,261.31
2023-09-17T10:26:29.186Z,259.25
2023-09-17T10:27:29.203Z,259.25
2023-09-17T10:28:29.285Z,259.45
2023-09-17T10:29:29.183Z,263.20
2023-09-17T10:30:29.365Z,265.76
2023-09-17T10:31:29.290Z,268.14
2023-09-17T10:32:29.169Z,271.02
2023-09-17T10:33:29.128Z,275.11
2023-09-17T10:34:29.178Z,279.81
2023-09-17T10:35:29.100Z,283.43
2023-09-17T10:36:29.132Z,283.19
2023-09-17T10:37:29.107Z,283.68
2023-09-17T10:38:29.124Z,287.66
2023-09-17T10:39:29.075Z,289.94
2023-09-17T10:40:29.084Z,289.69
2023-09-17T10:41:29.081Z,289.94
2023-09-17T10:42:29.023Z,285.90
2023-09-17T10:43:29.083Z,286.65
2023-09-17T10:44:29.019Z,292.27
2023-09-17T10:45:29.012Z,294.63
2023-09-17T10:46:29.047Z,296.76
2023-09-17T10:47:29.021Z,300.02
2023-09-17T10:48:28.987Z,301.40
2023-09-17T10:49:29.131Z,304.19
2023-09-17T10:50:29.071Z,305.89
2023-09-17T10:51:29.250Z,307.61
2023-09-17T10:52:28.997Z,308.19
2023-09-17T10:53:28.918Z,309.06
2023-09-17T10:54:28.917Z,308.19
2023-09-17T10:55:28.992Z,310.23
2023-09-17T10:56:28.931Z,312.60
2023-09-17T10:57:28.892Z,313.49
2023-09-17T10:58:29.032Z,316.21
2023-09-17T10:59:28.835Z,319.29
2023-09-17T11:00:28.953Z,318.67
2023-09-17T11:01:28.951Z,320.54
2023-09-17T11:02:28.955Z,321.16
2023-09-17T11:03:28.947Z,320.22
2023-09-17T11:04:28.893Z,322.11
2023-09-17T11:05:28.813Z,322.42
2023-09-17T11:06:28.770Z,324.34
2023-09-17T11:07:28.846Z,324.98
2023-09-17T11:08:28.768Z,323.06
2023-09-17T11:09:28.733Z,324.98
2023-09-17T11:10:32.606Z,323.70
2023-09-17T11:11:28.735Z,323.06
2023-09-17T11:12:28.772Z,323.38
2023-09-17T11:13:28.768Z,321.79
2023-09-17T11:14:28.693Z,319.91
2023-09-17T11:15:28.715Z,320.22
2023-09-17T11:16:28.681Z,318.67
2023-09-17T11:17:28.847Z,318.67
2023-09-17T11:18:28.708Z,321.16
2023-09-17T11:19:28.635Z,324.34
2023-09-17T11:20:28.671Z,323.70
2023-09-17T11:21:28.621Z,322.74
2023-09-17T11:22:28.602Z,321.79
2023-09-17T11:23:28.670Z,320.54
2023-09-17T11:24:28.586Z,319.91
2023-09-17T11:25:28.563Z,320.85
2023-09-17T11:26:28.570Z,321.48
2023-09-17T11:27:28.605Z,318.67
2023-09-17T11:28:28.528Z,322.42
2023-09-17T11:29:28.518Z,322.42
2023-09-17T11:30:28.553Z,322.11
2023-09-17T11:31:28.558Z,319.60
2023-09-17T11:32:28.527Z,320.54
2023-09-17T11:33:28.494Z,318.67
2023-09-17T11:34:28.597Z,314.09
2023-09-17T11:35:28.469Z,315.90
2023-09-17T11:36:28.488Z,312.00
2023-09-17T11:37:28.455Z,313.79
2023-09-17T11:38:28.543Z,309.64
2023-09-17T11:39:28.441Z,310.23
2023-09-17T11:40:28.475Z,309.06
2023-09-17T11:41:28.434Z,309.64
2023-09-17T11:42:28.405Z,308.77
2023-09-17T11:43:28.371Z,307.61
2023-09-17T11:44:28.417Z,307.90
2023-09-17T11:45:28.364Z,309.64
2023-09-17T11:46:28.384Z,311.41
2023-09-17T11:47:28.493Z,312.00
2023-09-17T11:48:28.406Z,311.41
2023-09-17T11:49:28.304Z,310.82
2023-09-17T11:50:28.328Z,311.70
2023-09-17T11:51:28.326Z,311.41
2023-09-17T11:52:28.270Z,310.52
2023-09-17T11:53:28.268Z,307.90
2023-09-17T11:54:28.574Z,312.00
2023-09-17T11:55:28.240Z,309.64
2023-09-17T11:56:28.299Z,309.06
2023-09-17T11:57:28.259Z,309.94
2023-09-17T11:58:28.276Z,310.23
2023-09-17T11:59:28.244Z,310.82
2023-09-17T12:00:28.185Z,309.64
2023-09-17T12:01:28.240Z,309.64
2023-09-17T12:02:28.239Z,309.64
2023-09-17T12:03:28.235Z,309.35
2023-09-17T12:04:28.235Z,310.52
2023-09-17T12:05:28.220Z,308.48
2023-09-17T12:06:28.147Z,307.33
2023-09-17T12:07:28.984Z,307.33
2023-09-17T12:08:28.152Z,305.61
2023-09-17T12:09:28.108Z,307.04
2023-09-17T12:10:28.231Z,307.33
2023-09-17T12:11:28.062Z,306.46
2023-09-17T12:12:28.088Z,310.52
2023-09-17T12:13:28.166Z,308.77
2023-09-17T12:14:28.058Z,309.35
2023-09-17T12:15:28.047Z,311.11
2023-09-17T12:16:28.034Z,312.30
2023-09-17T12:17:28.065Z,313.49
2023-09-17T12:18:28.042Z,313.19
2023-09-17T12:19:28.035Z,312.89
2023-09-17T12:20:28.076Z,309.64
2023-09-17T12:21:27.980Z,309.35
2023-09-17T12:22:27.965Z,310.23
2023-09-17T12:23:27.945Z,309.64
2023-09-17T12:24:28.007Z,309.06
2023-09-17T12:25:27.912Z,311.41
2023-09-17T12:26:27.919Z,310.52
2023-09-17T12:27:27.919Z,310.52
2023-09-17T12:28:27.905Z,310.23
2023-09-17T12:29:27.892Z,307.61